Time;durP1;ratioP1;P1;durP2;ratioP2;P2;SDS_P1;SDS_P2;PMS_P1;PMS_P2;Temp;Humidity;BMP_temperature;BMP_pressure;BME280_temperature;BME280_humidity;BME280_pressure;Samples;Min_cycle;Max_cycle;Signal;HPM_P1;HPM_P2
2023/01/26 00:01:10;;;;;;;178.60;40.38;;;;;;;-0.84;90.97;102077.44;5091870;28;20127;-51
2023/01/26 00:03:36;;;;;;;160.88;38.95;;;;;;;-0.75;90.84;102075.47;5095535;28;20052;-51
2023/01/26 00:06:05;;;;;;;158.13;37.75;;;;;;;-0.64;89.12;102082.06;5092128;28;20044;-52
2023/01/26 00:08:41;;;;;;;166.18;39.97;;;;;;;-0.79;89.78;102070.34;5116152;28;20047;-53
2023/01/26 00:11:12;;;;;;;166.43;38.75;;;;;;;-0.82;90.78;102065.25;5111909;28;20039;-52
2023/01/26 00:13:39;;;;;;;137.02;31.40;;;;;;;-0.78;90.07;102069.47;5116042;28;20059;-52
2023/01/26 00:16:09;;;;;;;153.68;36.97;;;;;;;-0.88;89.01;102056.75;5112021;28;20408;-51
2023/01/26 00:18:38;;;;;;;161.75;35.58;;;;;;;-1.08;90.26;102057.38;5116019;28;20078;-51
2023/01/26 00:21:07;;;;;;;163.98;38.10;;;;;;;-1.04;90.72;102058.97;5087498;28;20515;-53
2023/01/26 00:23:34;;;;;;;174.80;39.15;;;;;;;-1.09;91.12;102051.31;5091951;28;20051;-52
2023/01/26 00:26:01;;;;;;;166.30;38.85;;;;;;;-0.98;91.14;102051.00;5091463;28;20055;-51
2023/01/26 00:28:29;;;;;;;171.65;38.85;;;;;;;-0.96;90.84;102046.59;5095405;28;20048;-52
2023/01/26 00:31:04;;;;;;;170.63;39.22;;;;;;;-0.91;90.99;102043.81;5090899;28;20056;-52
2023/01/26 00:33:31;;;;;;;172.20;38.25;;;;;;;-0.92;91.03;102037.78;5095505;28;20047;-51
2023/01/26 00:35:58;;;;;;;155.65;36.22;;;;;;;-0.77;90.51;102039.88;5091058;28;20043;-52
2023/01/26 00:38:26;;;;;;;169.32;40.03;;;;;;;-1.00;91.03;102029.31;5074719;28;20559;-52
2023/01/26 00:40:53;;;;;;;175.02;39.60;;;;;;;-1.38;92.97;102020.97;5070852;28;20040;-52
2023/01/26 00:43:20;;;;;;;172.82;37.90;;;;;;;-1.34;93.30;102025.16;5075016;28;20071;-51
2023/01/26 00:45:46;;;;;;;159.23;38.25;;;;;;;-1.20;93.46;101998.69;5070845;28;20037;-52
2023/01/26 00:48:14;;;;;;;168.57;38.72;;;;;;;-1.17;92.80;101996.84;5074704;28;20485;-53
2023/01/26 00:50:42;;;;;;;167.48;38.60;;;;;;;-1.38;93.58;101989.72;5070430;28;20717;-51
2023/01/26 00:53:09;;;;;;;171.05;37.42;;;;;;;-1.49;94.62;101987.44;5074959;28;20047;-52
2023/01/26 00:55:36;;;;;;;167.82;38.45;;;;;;;-1.27;94.28;101989.41;5071652;28;20044;-53
2023/01/26 00:58:05;;;;;;;176.93;39.53;;;;;;;-1.33;94.05;101997.38;5093214;28;20051;-51
2023/01/26 01:00:33;;;;;;;170.38;37.05;;;;;;;-1.11;93.50;101982.81;5092628;28;20519;-53
2023/01/26 01:03:01;;;;;;;162.95;36.95;;;;;;;-1.12;93.11;101975.03;5093363;28;20040;-52
2023/01/26 01:05:29;;;;;;;165.23;37.97;;;;;;;-1.04;93.48;101980.84;5093127;28;20068;-53
2023/01/26 01:07:56;;;;;;;175.40;38.38;;;;;;;-0.98;93.32;101978.91;5108878;28;20546;-51
2023/01/26 01:10:23;;;;;;;166.82;39.83;;;;;;;-0.92;92.62;101972.63;5114385;28;20054;-51
2023/01/26 01:12:51;;;;;;;168.93;38.85;;;;;;;-0.81;92.62;101977.50;5112291;28;20580;-52
2023/01/26 01:15:18;;;;;;;174.30;38.42;;;;;;;-0.73;92.17;101979.84;5108397;28;20616;-52
2023/01/26 01:17:45;;;;;;;165.98;38.80;;;;;;;-0.75;91.80;101973.84;5069528;28;20072;-51
2023/01/26 01:20:12;;;;;;;168.43;38.03;;;;;;;-0.77;92.15;101985.16;5074317;28;20044;-53
2023/01/26 01:22:40;;;;;;;167.48;40.97;;;;;;;-0.79;91.58;101983.50;5066528;28;20072;-53
2023/01/26 01:25:07;;;;;;;168.68;38.45;;;;;;;-0.77;92.45;101966.91;5073929;28;20047;-51
2023/01/26 01:27:34;;;;;;;172.20;38.95;;;;;;;-0.70;92.66;101964.97;5084961;28;20764;-53
2023/01/26 01:30:06;;;;;;;163.43;39.33;;;;;;;-0.70;92.68;101969.31;5094609;28;20213;-52
2023/01/26 01:32:36;;;;;;;176.48;39.42;;;;;;;-0.69;91.89;101965.81;5089838;28;20058;-50
2023/01/26 01:35:02;;;;;;;174.52;40.60;;;;;;;-0.80;92.03;101968.75;5094326;28;20040;-50
2023/01/26 01:37:30;;;;;;;173.75;38.97;;;;;;;-0.73;92.79;101972.88;5102901;28;20726;-51
2023/01/26 01:39:57;;;;;;;179.02;39.80;;;;;;;-0.80;93.11;101969.63;5114543;28;20048;-50
2023/01/26 01:42:24;;;;;;;176.38;40.75;;;;;;;-0.84;93.29;101972.38;5110795;28;20054;-50
2023/01/26 01:45:31;;;;;;;184.30;40.90;;;;;;;-0.81;93.30;101970.53;5114528;28;20497;-50
2023/01/26 01:48:02;;;;;;;176.00;37.28;;;;;;;-0.95;94.26;101966.69;5109880;28;20511;-50
2023/01/26 01:50:36;;;;;;;179.50;40.30;;;;;;;-0.82;93.95;101957.53;5114387;28;20047;-51
2023/01/26 01:53:07;;;;;;;187.40;42.40;;;;;;;-0.92;95.25;101953.56;5110219;28;20067;-50
2023/01/26 01:55:35;;;;;;;179.30;42.85;;;;;;;-0.90;95.08;101952.59;5114250;28;20546;-53
2023/01/26 01:58:05;;;;;;;169.15;37.97;;;;;;;-0.88;93.47;101949.94;5090684;28;20075;-50
2023/01/26 02:00:31;;;;;;;190.88;41.90;;;;;;;-1.10;95.05;101955.84;5093495;28;20408;-52
2023/01/26 02:03:10;;;;;;;192.00;41.38;;;;;;;-1.24;96.10;101964.09;5089436;28;20079;-51
2023/01/26 02:06:04;;;;;;;176.15;38.88;;;;;;;-1.29;96.68;101955.59;5093633;28;20048;-51
2023/01/26 02:08:34;;;;;;;;;;;;;;;-1.30;97.94;101951.28;5068906;28;20044;-51
2023/01/26 02:11:07;;;;;;;165.80;34.50;;;;;;;-1.21;97.03;101947.53;5073574;28;19924;-53
2023/01/26 02:13:36;;;;;;;181.93;38.33;;;;;;;-1.15;96.59;101952.53;5069347;28;20079;-52
2023/01/26 02:16:02;;;;;;;181.27;36.53;;;;;;;-1.18;96.81;101947.44;5072008;28;20064;-52
2023/01/26 02:18:30;;;;;;;162.52;38.13;;;;;;;-1.21;97.56;101942.31;5068889;28;20128;-52
2023/01/26 02:21:01;;;;;;;170.48;36.88;;;;;;;-1.17;97.37;101936.09;5073520;28;20049;-52
2023/01/26 02:24:07;;;;;;;188.63;37.37;;;;;;;-1.20;97.04;101931.84;5038098;28;20040;-50
2023/01/26 02:26:36;;;;;;;167.63;36.47;;;;;;;-1.24;97.20;101934.59;5071440;28;20131;-53
2023/01/26 02:29:07;;;;;;;168.57;35.40;;;;;;;-1.29;97.26;101936.50;5068356;28;20585;-52
2023/01/26 02:31:40;;;;;;;185.18;37.38;;;;;;;-1.31;96.62;101930.47;5072901;28;20514;-52
2023/01/26 02:34:06;;;;;;;165.65;36.55;;;;;;;-1.36;97.62;101936.69;5068876;28;20064;-51
2023/01/26 02:36:33;;;;;;;181.88;37.35;;;;;;;-1.27;98.45;101927.75;5082914;28;20044;-50
2023/01/26 02:39:25;;;;;;;183.30;37.17;;;;;;;-1.33;98.35;101933.13;5109145;28;20074;-52
2023/01/26 02:44:42;;;;;;;180.98;38.53;;;;;;;-1.22;98.36;101920.66;5109364;28;20455;-51
2023/01/26 02:47:12;;;;;;;185.15;37.00;;;;;;;-1.49;99.17;101929.31;5113821;28;20047;-52
2023/01/26 02:49:46;;;;;;;191.23;37.58;;;;;;;-1.27;98.46;101932.97;5109285;28;20067;-53
2023/01/26 02:52:16;;;;;;;182.68;35.80;;;;;;;-1.39;98.69;101930.72;5113356;28;20048;-51
2023/01/26 02:57:33;;;;;;;177.77;36.13;;;;;;;-1.15;98.25;101921.28;5097259;28;20502;-51
2023/01/26 03:00:02;;;;;;;187.48;37.25;;;;;;;-1.14;98.13;101912.56;5088867;28;20048;-51
2023/01/26 03:02:30;;;;;;;191.30;37.72;;;;;;;-1.01;98.80;101918.25;5093056;28;20048;-51
2023/01/26 03:04:56;;;;;;;189.63;39.10;;;;;;;-1.07;98.96;101914.09;5088768;28;20445;-52
2023/01/26 03:07:24;;;;;;;180.13;36.63;;;;;;;-1.16;99.05;101910.03;5104406;28;20074;-52
2023/01/26 03:09:52;;;;;;;211.60;38.70;;;;;;;-1.09;99.05;101909.81;5109190;28;20071;-52
2023/01/26 03:12:19;;;;;;;196.90;37.88;;;;;;;-1.11;99.71;101911.63;5113515;28;20105;-53
2023/01/26 03:15:33;;;;;;;196.18;40.00;;;;;;;-1.06;99.25;101907.09;5109164;28;20044;-51
2023/01/26 03:17:32;;;;;;;197.82;39.00;;;;;;;-0.90;98.38;101910.06;5112912;28;20058;-52
2023/01/26 03:27:25;;;;;;;191.02;37.53;;;;;;;-0.95;98.79;101905.00;5112898;28;20412;-51
2023/01/26 03:28:21;;;;;;;209.93;39.03;;;;;;;-1.11;98.60;101902.06;5072401;28;20520;-51
2023/01/26 03:30:49;;;;;;;194.27;38.17;;;;;;;-1.09;98.96;101892.44;5068131;28;20052;-52
2023/01/26 03:33:18;;;;;;;183.35;38.22;;;;;;;-0.98;98.71;101889.50;5072725;28;20037;-52
2023/01/26 03:35:46;;;;;;;182.02;36.47;;;;;;;-1.32;99.58;101892.34;5068271;28;20025;-53
2023/01/26 03:38:13;;;;;;;193.27;36.85;;;;;;;-0.97;99.04;101891.19;5110093;28;20044;-52
2023/01/26 03:57:28;;;;;;;174.88;33.70;;;;;;;-1.09;98.36;101883.75;5101913;28;20044;-51
2023/01/26 03:59:55;;;;;;;179.00;35.92;;;;;;;-1.17;98.84;101884.88;5092006;28;20048;-52
2023/01/26 04:08:33;;;;;;;188.20;35.13;;;;;;;-0.92;98.42;101897.09;5112379;28;20047;-53
2023/01/26 04:10:55;;;;;;;192.23;35.17;;;;;;;-0.74;97.76;101898.22;5111706;28;20070;-52
2023/01/26 04:21:52;;;;;;;184.05;36.00;;;;;;;-0.50;96.52;101898.25;5115986;28;20040;-50
2023/01/26 04:24:21;;;;;;;188.60;35.58;;;;;;;-0.62;97.01;101900.41;5069104;28;20044;-52
2023/01/26 04:26:52;;;;;;;184.45;35.40;;;;;;;-0.64;96.86;101894.41;5070903;28;20398;-52
2023/01/26 04:29:24;;;;;;;177.60;36.37;;;;;;;-0.65;96.59;101894.44;5074771;28;20149;-52
2023/01/26 04:31:52;;;;;;;171.23;33.33;;;;;;;-0.71;97.63;101894.63;5070454;28;20305;-51
2023/01/26 04:34:21;;;;;;;179.45;35.13;;;;;;;-0.81;97.78;101889.75;5075092;28;20052;-50
2023/01/26 04:36:48;;;;;;;179.20;36.83;;;;;;;-0.80;96.94;101882.78;5084835;28;20050;-50
2023/01/26 04:39:15;;;;;;;175.25;36.35;;;;;;;-0.77;96.96;101888.72;5115512;28;20078;-51
2023/01/26 04:41:46;;;;;;;171.45;33.95;;;;;;;-0.80;97.37;101881.03;5111449;28;20047;-51
2023/01/26 04:44:15;;;;;;;183.15;36.50;;;;;;;-0.79;97.34;101882.72;5115788;28;20055;-50
2023/01/26 04:46:42;;;;;;;191.75;38.10;;;;;;;-0.81;97.82;101881.94;5111392;28;20046;-51
2023/01/26 04:49:11;;;;;;;183.15;37.53;;;;;;;-0.67;97.65;101878.84;5115075;28;20053;-52
2023/01/26 04:51:38;;;;;;;180.20;36.45;;;;;;;-0.72;98.30;101877.31;5111004;28;20067;-51
2023/01/26 04:54:05;;;;;;;173.50;34.33;;;;;;;-0.87;98.25;101881.31;5115533;28;20055;-51
2023/01/26 04:56:35;;;;;;;191.85;34.78;;;;;;;-0.74;98.61;101873.94;5104157;28;20083;-52
2023/01/26 04:59:05;;;;;;;195.40;35.55;;;;;;;-0.65;98.25;101881.41;5094725;28;20135;-51
2023/01/26 05:01:33;;;;;;;178.43;32.97;;;;;;;-0.56;98.79;101880.22;5090817;28;20044;-51
2023/01/26 05:04:03;;;;;;;182.70;34.65;;;;;;;-0.62;98.24;101876.94;5094554;28;20105;-52
2023/01/26 05:06:32;;;;;;;174.50;35.08;;;;;;;-0.53;98.75;101873.13;5094741;28;20651;-52
2023/01/26 05:08:58;;;;;;;182.02;35.80;;;;;;;-0.46;98.15;101871.19;5115005;28;20051;-52
2023/01/26 05:11:26;;;;;;;182.90;35.72;;;;;;;-0.48;98.13;101873.00;5110730;28;20047;-52
2023/01/26 05:14:09;;;;;;;153.95;31.70;;;;;;;-0.66;98.84;101887.53;5115138;28;20052;-51
2023/01/26 05:16:56;;;;;;;153.40;30.48;;;;;;;-0.73;99.32;101883.44;5110480;28;20051;-52
2023/01/26 05:19:36;;;;;;;169.25;32.55;;;;;;;-0.89;99.83;101883.97;5114916;28;20047;-52
2023/01/26 05:22:15;;;;;;;158.50;33.75;;;;;;;-0.85;100.00;101880.34;5110634;28;20127;-52
2023/01/26 05:25:02;;;;;;;158.35;33.15;;;;;;;-0.75;100.00;101880.88;5114441;28;20051;-53
2023/01/26 05:27:37;;;;;;;170.07;33.97;;;;;;;-0.74;100.00;101881.75;5092615;28;20490;-50
2023/01/26 05:30:05;;;;;;;174.52;33.75;;;;;;;-0.81;100.00;101881.94;5094278;28;20408;-50
2023/01/26 05:32:34;;;;;;;170.40;33.95;;;;;;;-0.66;100.00;101887.53;5089815;28;20518;-52
2023/01/26 05:35:03;;;;;;;161.25;34.92;;;;;;;-0.59;100.00;101876.81;5094181;28;20052;-52
2023/01/26 05:37:31;;;;;;;135.40;31.20;;;;;;;-0.64;100.00;101883.97;5102834;28;20052;-51
2023/01/26 05:39:58;;;;;;;151.55;30.88;;;;;;;-0.70;100.00;101889.38;5114577;28;20051;-50
2023/01/26 05:42:26;;;;;;;156.63;32.58;;;;;;;-0.64;100.00;101885.72;5110084;28;20047;-51
2023/01/26 05:45:13;;;;;;;135.13;29.65;;;;;;;-0.54;100.00;101875.81;5114011;28;20044;-52
2023/01/26 05:47:43;;;;;;;132.25;29.73;;;;;;;-0.40;100.00;101882.25;5109860;28;20040;-51
2023/01/26 05:50:11;;;;;;;128.45;29.52;;;;;;;-0.42;100.00;101883.19;5114331;28;20048;-51
2023/01/26 05:52:40;;;;;;;132.00;30.40;;;;;;;-0.46;100.00;101884.22;5109775;28;20039;-51
2023/01/26 05:55:09;;;;;;;130.27;30.75;;;;;;;-0.84;100.00;101895.06;5114161;28;20043;-53
2023/01/26 05:57:35;;;;;;;127.88;30.55;;;;;;;-0.71;100.00;101882.50;5094197;28;20080;-52
2023/01/26 06:00:05;;;;;;;123.18;28.85;;;;;;;-0.67;100.00;101891.88;5094003;28;20060;-53
2023/01/26 06:02:50;;;;;;;107.25;26.73;;;;;;;-0.78;100.00;101894.88;5106982;27;20861;-52
2023/01/26 06:05:17;;;;;;;106.05;28.38;;;;;;;-0.83;100.00;101893.31;5110729;28;20089;-52
2023/01/26 06:07:46;;;;;;;108.57;26.63;;;;;;;-1.00;100.00;101897.34;5121417;28;20051;-53
2023/01/26 06:10:18;;;;;;;100.75;27.17;;;;;;;-0.60;100.00;101897.72;5131655;27;20203;-52
2023/01/26 06:12:56;;;;;;;102.20;26.48;;;;;;;-0.66;100.00;101898.78;5127342;27;20051;-53
2023/01/26 06:15:40;;;;;;;104.93;27.48;;;;;;;-0.55;100.00;101900.19;5131551;27;20396;-50
2023/01/26 06:18:07;;;;;;;97.82;27.13;;;;;;;-0.76;100.00;101905.25;5126602;28;20047;-50
2023/01/26 06:20:35;;;;;;;89.10;24.45;;;;;;;-0.72;100.00;101906.00;5131029;28;20070;-53
2023/01/26 06:23:04;;;;;;;92.18;26.45;;;;;;;-0.68;100.00;101900.59;5120021;27;20075;-52
2023/01/26 06:25:33;;;;;;;92.65;25.88;;;;;;;-0.71;100.00;101894.63;5088927;28;20056;-52
2023/01/26 06:28:00;;;;;;;93.53;26.38;;;;;;;-0.73;100.00;101897.28;5081504;28;20738;-51
2023/01/26 06:30:27;;;;;;;82.07;25.50;;;;;;;-0.77;100.00;101893.94;5089295;28;20070;-51
2023/01/26 06:32:59;;;;;;;87.03;25.05;;;;;;;-0.63;100.00;101895.25;5085678;28;20502;-51
2023/01/26 06:35:28;;;;;;;72.70;23.02;;;;;;;-0.62;100.00;101900.41;5090266;28;20127;-51
2023/01/26 06:37:58;;;;;;;71.60;22.83;;;;;;;-0.56;100.00;101898.47;5119348;28;20031;-50
2023/01/26 06:40:25;;;;;;;70.32;22.25;;;;;;;-0.64;100.00;101893.53;5130819;27;20373;-51
2023/01/26 06:42:51;;;;;;;70.20;21.65;;;;;;;-0.47;100.00;101895.56;5126034;27;20451;-50
2023/01/26 06:45:19;;;;;;;57.17;19.90;;;;;;;-0.48;100.00;101894.69;5130266;28;20458;-51
2023/01/26 06:47:48;;;;;;;62.78;20.83;;;;;;;-0.43;100.00;101892.78;5126062;27;20043;-51
2023/01/26 06:50:18;;;;;;;71.00;22.55;;;;;;;-0.29;100.00;101899.22;5130211;27;20039;-51
2023/01/26 06:52:50;;;;;;;64.90;21.25;;;;;;;-0.32;99.94;101900.22;5125573;27;20050;-52
2023/01/26 06:55:37;;;;;;;55.45;20.38;;;;;;;-0.34;100.00;101906.41;5130541;27;20400;-52
2023/01/26 06:58:23;;;;;;;61.90;21.20;;;;;;;-0.47;100.00;101906.00;5084541;28;20048;-52
2023/01/26 07:01:20;;;;;;;64.45;21.63;;;;;;;-0.48;99.85;101909.47;5089017;28;20045;-52
2023/01/26 07:03:48;;;;;;;64.10;21.15;;;;;;;-0.64;100.00;101915.25;5084916;28;20048;-54
2023/01/26 07:06:18;;;;;;;64.45;21.73;;;;;;;-0.53;100.00;101919.22;5094672;28;20048;-52
2023/01/26 07:08:45;;;;;;;74.20;22.95;;;;;;;-0.48;100.00;101914.69;5099254;27;20074;-54
2023/01/26 07:11:12;;;;;;;66.13;21.95;;;;;;;-0.68;100.00;101918.84;5109826;28;20036;-53
2023/01/26 07:13:39;;;;;;;79.90;23.80;;;;;;;-0.49;100.00;101920.81;5094563;28;20102;-54
2023/01/26 07:16:09;;;;;;;67.88;21.90;;;;;;;-0.74;100.00;101913.84;5096380;28;20040;-51
2023/01/26 07:18:36;;;;;;;69.18;21.13;;;;;;;-0.93;100.00;101913.59;5091514;28;20105;-52
2023/01/26 07:21:04;;;;;;;69.57;22.27;;;;;;;-0.74;100.00;101906.03;5096190;28;20396;-53
2023/01/26 07:23:32;;;;;;;73.80;21.88;;;;;;;-0.81;100.00;101908.00;5091560;28;20501;-52
2023/01/26 07:26:00;;;;;;;73.07;20.83;;;;;;;-0.78;100.00;101904.44;5094061;28;20040;-52
2023/01/26 07:28:29;;;;;;;69.20;21.15;;;;;;;-0.73;100.00;101906.88;5068222;28;20127;-53
2023/01/26 07:30:56;;;;;;;74.63;23.65;;;;;;;-0.63;100.00;101903.06;5075665;28;20051;-52
2023/01/26 07:33:23;;;;;;;79.85;23.02;;;;;;;-0.74;100.00;101902.59;5071222;28;20048;-50
2023/01/26 07:35:52;;;;;;;76.00;25.98;;;;;;;-0.68;100.00;101899.75;5075537;28;20501;-51
2023/01/26 07:38:19;;;;;;;79.97;25.17;;;;;;;-0.74;100.00;101902.59;5110959;28;20127;-51
2023/01/26 07:40:46;;;;;;;74.78;24.85;;;;;;;-0.66;100.00;101905.75;5116128;27;20047;-50
2023/01/26 07:43:14;;;;;;;80.70;24.25;;;;;;;-0.75;100.00;101911.28;5111453;28;20684;-53
2023/01/26 07:45:53;;;;;;;71.63;24.33;;;;;;;-0.60;100.00;101916.84;5116187;28;20096;-53
2023/01/26 07:48:22;;;;;;;83.45;26.55;;;;;;;-0.52;100.00;101908.75;5111730;28;20039;-52
2023/01/26 07:50:49;;;;;;;75.30;26.08;;;;;;;-0.46;100.00;101911.13;5115938;28;20041;-50
2023/01/26 07:53:20;;;;;;;81.57;25.60;;;;;;;-0.34;100.00;101915.06;5053070;28;20048;-50
2023/01/26 07:55:48;;;;;;;84.53;25.40;;;;;;;-0.44;100.00;101917.16;5108874;28;20040;-49
2023/01/26 07:58:17;;;;;;;80.90;25.00;;;;;;;-0.34;100.00;101916.84;5109534;28;20093;-51
2023/01/26 08:00:46;;;;;;;81.97;23.88;;;;;;;-0.44;100.00;101916.28;5096557;28;20509;-48
2023/01/26 08:03:13;;;;;;;77.72;25.13;;;;;;;-0.37;100.00;101909.94;5097808;28;20078;-51
2023/01/26 08:05:42;;;;;;;88.72;25.50;;;;;;;-0.29;100.00;101914.88;5101876;28;20048;-50
2023/01/26 08:08:08;;;;;;;84.22;25.92;;;;;;;-0.29;100.00;101912.28;5083730;28;20529;-51
2023/01/26 08:10:35;;;;;;;114.70;35.33;;;;;;;-0.27;100.00;101911.34;5080414;28;20051;-50
2023/01/26 08:13:01;;;;;;;83.93;27.65;;;;;;;-0.22;100.00;101917.25;5087670;28;20546;-52
2023/01/26 08:15:29;;;;;;;87.38;26.35;;;;;;;-0.17;100.00;101911.00;5091081;28;20097;-49
2023/01/26 08:17:56;;;;;;;92.28;26.83;;;;;;;-0.15;100.00;101912.63;5086430;28;20686;-50
2023/01/26 08:20:22;;;;;;;201.10;64.13;;;;;;;-0.02;99.44;101919.13;5112773;28;20052;-48
2023/01/26 08:22:49;;;;;;;84.18;25.85;;;;;;;-0.13;98.74;101915.19;5083217;28;20036;-49
2023/01/26 08:25:16;;;;;;;86.38;25.73;;;;;;;-0.13;99.47;101918.63;5077445;28;20040;-49
2023/01/26 08:27:43;;;;;;;86.57;24.67;;;;;;;-0.11;99.72;101923.81;5086868;28;20071;-49
2023/01/26 08:30:11;;;;;;;84.00;25.42;;;;;;;-0.13;99.76;101926.47;5102477;28;20656;-49
2023/01/26 08:32:38;;;;;;;78.90;24.35;;;;;;;-0.21;99.85;101928.50;5081237;28;20045;-49
2023/01/26 08:35:05;;;;;;;81.55;24.60;;;;;;;-0.24;100.00;101928.59;5082329;28;20471;-51
2023/01/26 08:37:32;;;;;;;83.65;25.45;;;;;;;-0.01;99.42;101931.22;5098047;28;20451;-49
2023/01/26 08:39:59;;;;;;;79.43;24.90;;;;;;;0.01;99.72;101933.78;5060728;28;20056;-49
2023/01/26 08:42:26;;;;;;;81.05;24.92;;;;;;;-0.08;98.81;101932.38;5086794;28;20043;-52
2023/01/26 08:44:52;;;;;;;85.88;25.58;;;;;;;-0.06;98.85;101930.53;5069835;28;20044;-52
2023/01/26 08:47:19;;;;;;;83.18;25.17;;;;;;;-0.02;98.67;101932.16;5089615;28;20043;-51
2023/01/26 08:49:46;;;;;;;83.32;25.27;;;;;;;0.02;99.12;101939.84;5055770;28;20035;-51
2023/01/26 08:52:12;;;;;;;86.18;24.65;;;;;;;0.16;99.07;101943.69;5075448;28;20098;-53
2023/01/26 08:54:39;;;;;;;80.15;22.20;;;;;;;0.16;97.70;101934.97;5068942;28;20052;-50
2023/01/26 08:57:06;;;;;;;80.10;24.15;;;;;;;-0.02;98.21;101931.28;5084167;28;20044;-50
2023/01/26 08:59:32;;;;;;;91.63;23.48;;;;;;;0.03;98.30;101936.34;5077609;28;20379;-52
2023/01/26 09:01:59;;;;;;;83.63;24.38;;;;;;;0.09;98.62;101941.31;5083477;28;20044;-51
2023/01/26 09:04:26;;;;;;;83.15;24.08;;;;;;;0.20;97.89;101936.59;5087968;28;20090;-50
2023/01/26 09:06:53;;;;;;;85.47;24.75;;;;;;;0.21;97.08;101945.25;5059746;28;20067;-52
2023/01/26 09:09:19;;;;;;;89.05;24.27;;;;;;;0.09;98.71;101947.41;5090347;28;20101;-52
2023/01/26 09:11:46;;;;;;;101.32;26.08;;;;;;;0.05;99.11;101950.19;5071462;28;20266;-50
2023/01/26 09:14:13;;;;;;;109.50;27.13;;;;;;;0.08;98.99;101950.09;5082214;28;20102;-51
2023/01/26 09:16:40;;;;;;;83.32;25.20;;;;;;;0.01;98.65;101949.44;5088290;28;20070;-50
2023/01/26 09:19:06;;;;;;;83.70;23.90;;;;;;;0.16;98.76;101955.84;5093602;28;20055;-50
2023/01/26 09:21:33;;;;;;;98.50;26.25;;;;;;;0.22;98.07;101958.25;5088337;28;20055;-50
2023/01/26 09:24:00;;;;;;;100.63;26.90;;;;;;;0.18;97.96;101961.84;5063874;28;20048;-51
2023/01/26 09:26:29;;;;;;;103.03;25.38;;;;;;;0.25;97.85;101962.50;5088720;28;20040;-50
2023/01/26 09:28:55;;;;;;;97.97;27.98;;;;;;;0.37;98.98;101951.59;5072749;28;20110;-51
2023/01/26 09:31:22;;;;;;;101.72;27.17;;;;;;;0.46;98.54;101961.69;5089182;28;20131;-51
2023/01/26 09:33:49;;;;;;;102.20;28.15;;;;;;;0.47;98.02;101950.31;5082152;28;20071;-52
2023/01/26 09:36:16;;;;;;;101.35;28.35;;;;;;;0.59;98.13;101956.00;5088245;28;20067;-52
2023/01/26 09:38:43;;;;;;;95.07;25.88;;;;;;;0.44;97.51;101966.13;5069473;28;20059;-52
2023/01/26 09:41:40;;;;;;;100.97;28.00;;;;;;;0.48;97.37;101961.63;5076123;28;20044;-51
2023/01/26 09:44:15;;;;;;;104.78;27.88;;;;;;;0.39;97.16;101965.44;5066452;28;20052;-52
2023/01/26 09:49:25;;;;;;;101.43;28.55;;;;;;;0.32;98.25;101963.97;5054625;28;20378;-52
2023/01/26 09:52:02;;;;;;;107.60;27.23;;;;;;;0.40;97.56;101955.84;5027961;28;20055;-52
2023/01/26 09:54:35;;;;;;;112.75;28.10;;;;;;;0.43;97.99;101963.56;5025038;28;20068;-54
2023/01/26 09:57:13;;;;;;;119.60;28.25;;;;;;;0.34;98.01;101957.75;5028978;28;20045;-53
2023/01/26 09:59:49;;;;;;;106.90;28.33;;;;;;;0.32;98.85;101961.34;5029760;28;20200;-52
2023/01/26 10:02:33;;;;;;;105.03;29.08;;;;;;;0.46;97.89;101953.00;5022661;28;20049;-54
2023/01/26 10:05:07;;;;;;;105.28;27.88;;;;;;;0.42;98.86;101957.50;5024894;28;20045;-51
2023/01/26 10:07:35;;;;;;;112.88;30.27;;;;;;;0.34;99.43;101949.94;5019292;28;20293;-53
2023/01/26 10:10:02;;;;;;;96.35;26.50;;;;;;;0.34;99.89;101944.72;5004925;28;20443;-53
2023/01/26 10:12:35;;;;;;;105.00;27.50;;;;;;;0.40;99.38;101940.16;5039005;28;20049;-52
2023/01/26 10:15:07;;;;;;;112.28;28.45;;;;;;;0.35;100.00;101943.81;5043066;28;20065;-51
2023/01/26 10:17:38;;;;;;;107.25;28.25;;;;;;;0.42;99.74;101938.34;5036686;28;20041;-51
2023/01/26 10:20:29;;;;;;;97.20;27.73;;;;;;;0.43;99.99;101933.06;5039177;28;20160;-52
2023/01/26 10:23:03;;;;;;;108.78;26.48;;;;;;;0.38;100.00;101930.66;5032761;28;20134;-52
2023/01/26 10:25:35;;;;;;;96.45;25.60;;;;;;;0.36;100.00;101939.44;5024576;28;20217;-51
2023/01/26 10:28:16;;;;;;;109.72;27.02;;;;;;;0.48;100.00;101936.34;5042159;28;20045;-50
2023/01/26 10:30:44;;;;;;;104.00;26.70;;;;;;;0.41;100.00;101932.28;5021566;28;20053;-51
2023/01/26 10:33:17;;;;;;;96.32;26.40;;;;;;;0.55;99.27;101931.75;5044844;28;20396;-52
2023/01/26 10:35:43;;;;;;;99.57;25.55;;;;;;;0.59;99.64;101929.88;5042143;28;20147;-53
2023/01/26 10:38:39;;;;;;;93.55;26.00;;;;;;;0.63;99.74;101934.91;5049454;28;20083;-51
2023/01/26 10:41:22;;;;;;;97.15;26.02;;;;;;;0.52;100.00;101929.25;5038325;28;20045;-53
2023/01/26 10:43:53;;;;;;;82.40;22.95;;;;;;;0.48;100.00;101927.69;5038251;28;20041;-53
2023/01/26 10:46:28;;;;;;;97.47;23.63;;;;;;;0.45;100.00;101927.78;5028643;28;20049;-50
2023/01/26 10:48:59;;;;;;;81.60;23.23;;;;;;;0.47;100.00;101923.34;5023838;28;20096;-51
2023/01/26 10:51:31;;;;;;;94.13;22.73;;;;;;;0.49;100.00;101931.97;5028505;28;20053;-53
2023/01/26 10:54:22;;;;;;;80.93;23.83;;;;;;;0.60;100.00;101927.22;5028482;28;20056;-51
2023/01/26 10:56:55;;;;;;;85.25;24.20;;;;;;;0.49;100.00;101904.13;5045387;28;20048;-53
2023/01/26 10:59:44;;;;;;;73.82;22.15;;;;;;;0.66;100.00;101903.44;5038259;28;20124;-53
2023/01/26 11:07:44;;;;;;;75.32;19.73;;;;;;;0.55;100.00;101919.53;5123661;27;20352;-53
2023/01/26 11:10:26;;;;;;;74.32;21.83;;;;;;;0.68;100.00;101921.69;5126159;28;20040;-54
2023/01/26 11:13:16;;;;;;;73.63;21.75;;;;;;;0.86;100.00;101920.09;5116210;27;20043;-53
2023/01/26 11:15:47;;;;;;;82.40;21.67;;;;;;;0.80;100.00;101905.50;5081732;28;20048;-51
2023/01/26 11:18:41;;;;;;;60.53;18.55;;;;;;;0.75;100.00;101908.31;5089897;28;20052;-51
2023/01/26 11:21:16;;;;;;;69.38;20.05;;;;;;;0.75;100.00;101892.63;5084627;28;20102;-54
2023/01/26 11:23:57;;;;;;;70.47;20.50;;;;;;;0.83;100.00;101900.13;5090163;28;20048;-53
2023/01/26 11:29:35;;;;;;;69.90;20.35;;;;;;;0.83;100.00;101897.53;5047093;28;20400;-52
2023/01/26 11:32:39;;;;;;;69.38;19.70;;;;;;;0.82;100.00;101897.59;5065864;28;20080;-51
2023/01/26 11:38:26;;;;;;;63.75;19.40;;;;;;;1.03;100.00;101895.88;5125307;27;20353;-51
2023/01/26 11:41:33;;;;;;;75.20;19.58;;;;;;;0.93;99.99;101908.47;5130961;27;20047;-52
2023/01/26 11:44:24;;;;;;;67.95;18.95;;;;;;;0.86;100.00;101905.25;5124273;27;20100;-52
2023/01/26 11:47:27;;;;;;;60.80;18.83;;;;;;;0.75;100.00;101902.22;5113816;28;20504;-52
2023/01/26 11:50:05;;;;;;;62.35;17.98;;;;;;;0.86;100.00;101901.78;5082162;28;20417;-53
2023/01/26 11:52:47;;;;;;;58.65;17.27;;;;;;;0.97;100.00;101901.34;5089214;28;20052;-52
2023/01/26 11:55:31;;;;;;;63.03;16.65;;;;;;;0.93;100.00;101891.03;5085562;28;20060;-52
2023/01/26 11:58:21;;;;;;;50.35;15.70;;;;;;;0.90;100.00;101885.06;5108547;28;20093;-53
2023/01/26 12:00:53;;;;;;;50.13;15.23;;;;;;;0.75;100.00;101889.16;5105621;28;20570;-53
2023/01/26 12:03:29;;;;;;;41.55;12.23;;;;;;;0.57;100.00;101889.00;5107910;28;20043;-53
2023/01/26 12:06:01;;;;;;;45.47;13.43;;;;;;;0.60;100.00;101881.94;5094039;28;20400;-52
2023/01/26 12:08:38;;;;;;;39.95;13.52;;;;;;;0.67;100.00;101879.00;5105571;28;20044;-53
2023/01/26 12:11:21;;;;;;;41.88;13.82;;;;;;;0.77;100.00;101875.13;5090541;27;20048;-53
2023/01/26 12:16:36;;;;;;;43.97;13.80;;;;;;;0.95;100.00;101863.06;5106674;27;20380;-51
2023/01/26 12:19:31;;;;;;;47.75;14.90;;;;;;;1.00;100.00;101870.72;5109840;28;20044;-53
2023/01/26 12:22:10;;;;;;;47.67;15.07;;;;;;;0.89;100.00;101868.56;5098074;28;20276;-53
2023/01/26 12:24:44;;;;;;;46.30;15.70;;;;;;;0.86;100.00;101860.84;5104188;28;20050;-49